sensor_id;sensor_type;location;lat;lon;timestamp;P1;durP1;ratioP1;P2;durP2;ratioP2
74593;SDS011;63097;51.872;4.460;2023-06-26T00:01:14;7.22;;;2.40;;
74593;SDS011;63097;51.872;4.460;2023-06-26T00:03:40;6.53;;;2.60;;
74593;SDS011;63097;51.872;4.460;2023-06-26T00:06:05;6.32;;;2.25;;
74593;SDS011;63097;51.872;4.460;2023-06-26T00:08:30;5.97;;;2.40;;
74593;SDS011;63097;51.872;4.460;2023-06-26T00:10:57;5.75;;;2.80;;
74593;SDS011;63097;51.872;4.460;2023-06-26T00:13:22;7.40;;;1.83;;
74593;SDS011;63097;51.872;4.460;2023-06-26T00:15:48;10.30;;;1.95;;
74593;SDS011;63097;51.872;4.460;2023-06-26T00:18:14;9.48;;;2.35;;
74593;SDS011;63097;51.872;4.460;2023-06-26T00:20:39;5.72;;;1.85;;
74593;SDS011;63097;51.872;4.460;2023-06-26T00:23:04;7.47;;;2.22;;
74593;SDS011;63097;51.872;4.460;2023-06-26T00:25:30;9.63;;;2.22;;
74593;SDS011;63097;51.872;4.460;2023-06-26T00:27:55;6.30;;;2.58;;
74593;SDS011;63097;51.872;4.460;2023-06-26T00:30:20;12.35;;;2.35;;
74593;SDS011;63097;51.872;4.460;2023-06-26T00:32:46;7.65;;;1.88;;
74593;SDS011;63097;51.872;4.460;2023-06-26T00:35:11;12.45;;;3.40;;
74593;SDS011;63097;51.872;4.460;2023-06-26T00:37:36;9.80;;;2.25;;
74593;SDS011;63097;51.872;4.460;2023-06-26T00:40:02;10.68;;;2.90;;
74593;SDS011;63097;51.872;4.460;2023-06-26T00:42:27;10.10;;;2.40;;
74593;SDS011;63097;51.872;4.460;2023-06-26T00:44:52;7.80;;;2.30;;
74593;SDS011;63097;51.872;4.460;2023-06-26T00:47:18;9.18;;;2.40;;
74593;SDS011;63097;51.872;4.460;2023-06-26T00:49:43;10.68;;;2.50;;
74593;SDS011;63097;51.872;4.460;2023-06-26T00:52:09;14.73;;;3.50;;
74593;SDS011;63097;51.872;4.460;2023-06-26T00:54:34;14.25;;;2.95;;
74593;SDS011;63097;51.872;4.460;2023-06-26T00:57:00;17.08;;;3.75;;
74593;SDS011;63097;51.872;4.460;2023-06-26T00:59:25;14.23;;;2.90;;
74593;SDS011;63097;51.872;4.460;2023-06-26T01:01:50;13.15;;;3.58;;
74593;SDS011;63097;51.872;4.460;2023-06-26T01:04:16;12.15;;;2.58;;
74593;SDS011;63097;51.872;4.460;2023-06-26T01:06:41;18.08;;;4.00;;
74593;SDS011;63097;51.872;4.460;2023-06-26T01:09:06;18.25;;;3.95;;
74593;SDS011;63097;51.872;4.460;2023-06-26T01:11:32;14.93;;;3.35;;
74593;SDS011;63097;51.872;4.460;2023-06-26T01:13:58;14.10;;;4.00;;
74593;SDS011;63097;51.872;4.460;2023-06-26T01:16:26;16.70;;;3.55;;
74593;SDS011;63097;51.872;4.460;2023-06-26T01:18:54;12.48;;;3.50;;
74593;SDS011;63097;51.872;4.460;2023-06-26T01:21:20;13.75;;;2.90;;
74593;SDS011;63097;51.872;4.460;2023-06-26T01:26:23;12.20;;;3.33;;
74593;SDS011;63097;51.872;4.460;2023-06-26T01:28:52;19.40;;;3.90;;
74593;SDS011;63097;51.872;4.460;2023-06-26T01:31:19;17.05;;;3.85;;
74593;SDS011;63097;51.872;4.460;2023-06-26T01:33:44;12.02;;;3.05;;
74593;SDS011;63097;51.872;4.460;2023-06-26T01:36:11;11.88;;;3.95;;
74593;SDS011;63097;51.872;4.460;2023-06-26T01:38:37;15.07;;;3.30;;
74593;SDS011;63097;51.872;4.460;2023-06-26T01:41:02;22.25;;;3.10;;
74593;SDS011;63097;51.872;4.460;2023-06-26T01:47:10;15.93;;;3.80;;
74593;SDS011;63097;51.872;4.460;2023-06-26T01:52:19;9.23;;;2.60;;
74593;SDS011;63097;51.872;4.460;2023-06-26T01:55:17;12.40;;;3.15;;
74593;SDS011;63097;51.872;4.460;2023-06-26T01:57:48;11.32;;;2.95;;
74593;SDS011;63097;51.872;4.460;2023-06-26T02:00:17;15.20;;;3.83;;
74593;SDS011;63097;51.872;4.460;2023-06-26T02:02:44;18.05;;;3.47;;
74593;SDS011;63097;51.872;4.460;2023-06-26T02:05:10;15.60;;;2.97;;
74593;SDS011;63097;51.872;4.460;2023-06-26T02:07:36;10.20;;;2.85;;
74593;SDS011;63097;51.872;4.460;2023-06-26T02:10:02;16.50;;;2.30;;
74593;SDS011;63097;51.872;4.460;2023-06-26T02:12:28;9.30;;;2.80;;
74593;SDS011;63097;51.872;4.460;2023-06-26T02:14:53;16.10;;;2.90;;
74593;SDS011;63097;51.872;4.460;2023-06-26T02:17:20;10.30;;;2.80;;
74593;SDS011;63097;51.872;4.460;2023-06-26T02:19:45;16.05;;;2.97;;
74593;SDS011;63097;51.872;4.460;2023-06-26T02:22:10;11.80;;;2.97;;
74593;SDS011;63097;51.872;4.460;2023-06-26T02:24:36;10.85;;;2.50;;
74593;SDS011;63097;51.872;4.460;2023-06-26T02:27:01;14.75;;;2.90;;
74593;SDS011;63097;51.872;4.460;2023-06-26T02:29:26;12.15;;;2.78;;
74593;SDS011;63097;51.872;4.460;2023-06-26T02:31:52;10.18;;;2.50;;
74593;SDS011;63097;51.872;4.460;2023-06-26T02:34:17;11.25;;;2.47;;
74593;SDS011;63097;51.872;4.460;2023-06-26T02:36:42;8.40;;;2.33;;
74593;SDS011;63097;51.872;4.460;2023-06-26T02:39:07;10.40;;;2.65;;
74593;SDS011;63097;51.872;4.460;2023-06-26T02:41:33;13.05;;;2.38;;
74593;SDS011;63097;51.872;4.460;2023-06-26T02:43:58;9.10;;;1.92;;
74593;SDS011;63097;51.872;4.460;2023-06-26T02:46:23;12.27;;;2.60;;
74593;SDS011;63097;51.872;4.460;2023-06-26T02:48:49;9.73;;;2.63;;
74593;SDS011;63097;51.872;4.460;2023-06-26T02:51:15;9.35;;;2.85;;
74593;SDS011;63097;51.872;4.460;2023-06-26T02:53:40;14.48;;;2.92;;
74593;SDS011;63097;51.872;4.460;2023-06-26T02:56:06;10.35;;;2.50;;
74593;SDS011;63097;51.872;4.460;2023-06-26T02:58:31;9.55;;;2.40;;
74593;SDS011;63097;51.872;4.460;2023-06-26T03:00:56;11.57;;;2.40;;
74593;SDS011;63097;51.872;4.460;2023-06-26T03:03:22;11.43;;;2.67;;
74593;SDS011;63097;51.872;4.460;2023-06-26T03:05:47;17.27;;;2.67;;
74593;SDS011;63097;51.872;4.460;2023-06-26T03:08:12;19.05;;;3.00;;
74593;SDS011;63097;51.872;4.460;2023-06-26T03:10:38;10.07;;;2.42;;
74593;SDS011;63097;51.872;4.460;2023-06-26T03:13:03;15.73;;;2.92;;
74593;SDS011;63097;51.872;4.460;2023-06-26T03:15:28;8.45;;;2.08;;
74593;SDS011;63097;51.872;4.460;2023-06-26T03:17:53;11.30;;;3.20;;
74593;SDS011;63097;51.872;4.460;2023-06-26T03:20:19;14.35;;;2.70;;
74593;SDS011;63097;51.872;4.460;2023-06-26T03:22:44;17.42;;;3.22;;
74593;SDS011;63097;51.872;4.460;2023-06-26T03:25:12;13.52;;;2.65;;
74593;SDS011;63097;51.872;4.460;2023-06-26T03:27:37;15.15;;;2.90;;
74593;SDS011;63097;51.872;4.460;2023-06-26T03:30:03;10.52;;;2.72;;
74593;SDS011;63097;51.872;4.460;2023-06-26T03:32:28;13.30;;;2.17;;
74593;SDS011;63097;51.872;4.460;2023-06-26T03:34:54;11.75;;;3.20;;
74593;SDS011;63097;51.872;4.460;2023-06-26T03:37:19;11.13;;;2.83;;
74593;SDS011;63097;51.872;4.460;2023-06-26T03:39:44;11.80;;;2.90;;
74593;SDS011;63097;51.872;4.460;2023-06-26T03:42:10;11.45;;;2.70;;
74593;SDS011;63097;51.872;4.460;2023-06-26T03:44:35;14.45;;;3.00;;
74593;SDS011;63097;51.872;4.460;2023-06-26T03:47:00;18.80;;;3.10;;
74593;SDS011;63097;51.872;4.460;2023-06-26T03:49:26;11.07;;;2.83;;
74593;SDS011;63097;51.872;4.460;2023-06-26T03:51:51;11.00;;;2.85;;
74593;SDS011;63097;51.872;4.460;2023-06-26T03:54:16;9.20;;;2.30;;
74593;SDS011;63097;51.872;4.460;2023-06-26T03:56:41;9.80;;;2.45;;
74593;SDS011;63097;51.872;4.460;2023-06-26T03:59:07;10.63;;;2.33;;
74593;SDS011;63097;51.872;4.460;2023-06-26T04:01:32;10.80;;;2.75;;
74593;SDS011;63097;51.872;4.460;2023-06-26T04:03:57;20.42;;;3.08;;
74593;SDS011;63097;51.872;4.460;2023-06-26T04:06:23;9.50;;;2.47;;
74593;SDS011;63097;51.872;4.460;2023-06-26T04:08:48;9.68;;;2.63;;
74593;SDS011;63097;51.872;4.460;2023-06-26T04:11:13;10.50;;;2.40;;
74593;SDS011;63097;51.872;4.460;2023-06-26T04:13:40;13.70;;;2.60;;
74593;SDS011;63097;51.872;4.460;2023-06-26T04:16:06;16.73;;;2.83;;
74593;SDS011;63097;51.872;4.460;2023-06-26T04:18:31;15.23;;;2.95;;
74593;SDS011;63097;51.872;4.460;2023-06-26T04:23:34;8.35;;;2.47;;
74593;SDS011;63097;51.872;4.460;2023-06-26T04:26:00;11.65;;;2.15;;
74593;SDS011;63097;51.872;4.460;2023-06-26T04:28:26;8.32;;;2.03;;
74593;SDS011;63097;51.872;4.460;2023-06-26T04:30:51;6.25;;;1.85;;
74593;SDS011;63097;51.872;4.460;2023-06-26T04:33:16;8.52;;;1.83;;
74593;SDS011;63097;51.872;4.460;2023-06-26T04:35:42;8.25;;;2.00;;
74593;SDS011;63097;51.872;4.460;2023-06-26T04:38:07;14.35;;;1.80;;
74593;SDS011;63097;51.872;4.460;2023-06-26T04:40:32;1.92;;;1.23;;
74593;SDS011;63097;51.872;4.460;2023-06-26T04:42:58;5.50;;;1.42;;
74593;SDS011;63097;51.872;4.460;2023-06-26T04:45:23;4.45;;;1.70;;
74593;SDS011;63097;51.872;4.460;2023-06-26T04:47:48;5.68;;;1.20;;
74593;SDS011;63097;51.872;4.460;2023-06-26T04:50:13;5.75;;;1.40;;
74593;SDS011;63097;51.872;4.460;2023-06-26T04:52:39;2.75;;;1.33;;
74593;SDS011;63097;51.872;4.460;2023-06-26T04:55:04;5.53;;;1.33;;
74593;SDS011;63097;51.872;4.460;2023-06-26T04:57:31;9.32;;;1.30;;
74593;SDS011;63097;51.872;4.460;2023-06-26T04:59:56;8.57;;;1.30;;
74593;SDS011;63097;51.872;4.460;2023-06-26T05:02:21;6.57;;;1.60;;
74593;SDS011;63097;51.872;4.460;2023-06-26T05:04:47;2.50;;;1.10;;
74593;SDS011;63097;51.872;4.460;2023-06-26T05:07:12;4.05;;;1.17;;
74593;SDS011;63097;51.872;4.460;2023-06-26T05:09:38;3.47;;;1.30;;
74593;SDS011;63097;51.872;4.460;2023-06-26T05:12:03;5.07;;;1.40;;
74593;SDS011;63097;51.872;4.460;2023-06-26T05:14:29;7.82;;;1.60;;
74593;SDS011;63097;51.872;4.460;2023-06-26T05:16:54;7.00;;;1.40;;
74593;SDS011;63097;51.872;4.460;2023-06-26T05:19:20;3.13;;;1.30;;
74593;SDS011;63097;51.872;4.460;2023-06-26T05:21:45;10.77;;;1.48;;
74593;SDS011;63097;51.872;4.460;2023-06-26T05:24:11;1.98;;;1.13;;
74593;SDS011;63097;51.872;4.460;2023-06-26T05:26:38;15.55;;;1.80;;
74593;SDS011;63097;51.872;4.460;2023-06-26T05:29:04;11.07;;;2.20;;
74593;SDS011;63097;51.872;4.460;2023-06-26T05:31:30;5.15;;;1.35;;
74593;SDS011;63097;51.872;4.460;2023-06-26T05:33:58;5.72;;;0.75;;
74593;SDS011;63097;51.872;4.460;2023-06-26T05:36:27;3.67;;;0.70;;
74593;SDS011;63097;51.872;4.460;2023-06-26T05:38:54;9.07;;;0.93;;
74593;SDS011;63097;51.872;4.460;2023-06-26T05:41:20;3.15;;;0.88;;
74593;SDS011;63097;51.872;4.460;2023-06-26T05:43:45;5.15;;;0.88;;
74593;SDS011;63097;51.872;4.460;2023-06-26T05:46:11;6.20;;;0.90;;
74593;SDS011;63097;51.872;4.460;2023-06-26T05:48:36;2.50;;;0.70;;
74593;SDS011;63097;51.872;4.460;2023-06-26T05:51:01;10.00;;;2.28;;
74593;SDS011;63097;51.872;4.460;2023-06-26T05:53:27;3.20;;;0.63;;
74593;SDS011;63097;51.872;4.460;2023-06-26T05:55:53;5.60;;;1.05;;
74593;SDS011;63097;51.872;4.460;2023-06-26T05:58:18;4.25;;;0.73;;
74593;SDS011;63097;51.872;4.460;2023-06-26T06:00:45;8.93;;;0.98;;
74593;SDS011;63097;51.872;4.460;2023-06-26T06:03:10;2.20;;;0.60;;
74593;SDS011;63097;51.872;4.460;2023-06-26T06:05:35;3.20;;;0.80;;
74593;SDS011;63097;51.872;4.460;2023-06-26T06:08:01;7.45;;;0.90;;
74593;SDS011;63097;51.872;4.460;2023-06-26T06:10:26;6.05;;;1.20;;
74593;SDS011;63097;51.872;4.460;2023-06-26T06:12:51;7.63;;;0.80;;
74593;SDS011;63097;51.872;4.460;2023-06-26T06:15:17;8.00;;;1.00;;
74593;SDS011;63097;51.872;4.460;2023-06-26T06:17:42;3.47;;;0.68;;
74593;SDS011;63097;51.872;4.460;2023-06-26T06:20:07;5.15;;;0.80;;
74593;SDS011;63097;51.872;4.460;2023-06-26T06:22:33;5.82;;;0.88;;
74593;SDS011;63097;51.872;4.460;2023-06-26T06:24:58;6.07;;;0.70;;
74593;SDS011;63097;51.872;4.460;2023-06-26T06:27:25;9.00;;;0.63;;
74593;SDS011;63097;51.872;4.460;2023-06-26T06:29:50;9.48;;;0.90;;
74593;SDS011;63097;51.872;4.460;2023-06-26T06:32:15;7.00;;;0.80;;
74593;SDS011;63097;51.872;4.460;2023-06-26T06:34:41;7.25;;;0.80;;
74593;SDS011;63097;51.872;4.460;2023-06-26T06:37:06;4.32;;;0.77;;
74593;SDS011;63097;51.872;4.460;2023-06-26T06:39:31;3.03;;;0.80;;
74593;SDS011;63097;51.872;4.460;2023-06-26T06:41:56;4.78;;;0.70;;
74593;SDS011;63097;51.872;4.460;2023-06-26T06:44:22;12.10;;;1.08;;
74593;SDS011;63097;51.872;4.460;2023-06-26T06:46:47;3.75;;;0.73;;
74593;SDS011;63097;51.872;4.460;2023-06-26T06:49:13;5.80;;;0.85;;
74593;SDS011;63097;51.872;4.460;2023-06-26T06:51:38;2.75;;;0.70;;
74593;SDS011;63097;51.872;4.460;2023-06-26T06:54:03;7.80;;;0.95;;
74593;SDS011;63097;51.872;4.460;2023-06-26T06:56:28;8.00;;;0.85;;
74593;SDS011;63097;51.872;4.460;2023-06-26T06:58:54;6.03;;;1.10;;
74593;SDS011;63097;51.872;4.460;2023-06-26T07:01:19;6.43;;;1.00;;
74593;SDS011;63097;51.872;4.460;2023-06-26T07:03:44;5.78;;;0.63;;
74593;SDS011;63097;51.872;4.460;2023-06-26T07:06:10;3.28;;;0.70;;
74593;SDS011;63097;51.872;4.460;2023-06-26T07:08:35;2.17;;;0.82;;
74593;SDS011;63097;51.872;4.460;2023-06-26T07:11:00;6.32;;;0.80;;
74593;SDS011;63097;51.872;4.460;2023-06-26T07:13:26;7.63;;;1.05;;
74593;SDS011;63097;51.872;4.460;2023-06-26T07:15:51;3.72;;;0.75;;
74593;SDS011;63097;51.872;4.460;2023-06-26T07:18:16;7.25;;;1.10;;
74593;SDS011;63097;51.872;4.460;2023-06-26T07:20:42;3.75;;;0.75;;
74593;SDS011;63097;51.872;4.460;2023-06-26T07:23:07;8.00;;;0.80;;
74593;SDS011;63097;51.872;4.460;2023-06-26T07:25:33;9.02;;;1.10;;
74593;SDS011;63097;51.872;4.460;2023-06-26T07:27:58;5.55;;;0.90;;
74593;SDS011;63097;51.872;4.460;2023-06-26T07:30:24;12.27;;;0.98;;
74593;SDS011;63097;51.872;4.460;2023-06-26T07:32:49;6.03;;;1.10;;
74593;SDS011;63097;51.872;4.460;2023-06-26T07:35:15;1.73;;;0.55;;
74593;SDS011;63097;51.872;4.460;2023-06-26T07:37:40;5.72;;;1.15;;
74593;SDS011;63097;51.872;4.460;2023-06-26T07:40:06;6.40;;;1.08;;
74593;SDS011;63097;51.872;4.460;2023-06-26T07:42:31;6.90;;;0.77;;
74593;SDS011;63097;51.872;4.460;2023-06-26T07:44:57;6.97;;;0.98;;
74593;SDS011;63097;51.872;4.460;2023-06-26T07:47:22;4.18;;;0.80;;
74593;SDS011;63097;51.872;4.460;2023-06-26T07:49:47;9.75;;;1.02;;
74593;SDS011;63097;51.872;4.460;2023-06-26T07:52:13;2.78;;;1.20;;
74593;SDS011;63097;51.872;4.460;2023-06-26T07:54:38;8.48;;;1.20;;
74593;SDS011;63097;51.872;4.460;2023-06-26T07:57:04;12.52;;;1.20;;
74593;SDS011;63097;51.872;4.460;2023-06-26T07:59:30;6.68;;;1.30;;
74593;SDS011;63097;51.872;4.460;2023-06-26T08:01:56;6.60;;;1.05;;
74593;SDS011;63097;51.872;4.460;2023-06-26T08:04:23;9.23;;;1.45;;
74593;SDS011;63097;51.872;4.460;2023-06-26T08:06:50;4.47;;;1.15;;
74593;SDS011;63097;51.872;4.460;2023-06-26T08:09:18;5.63;;;0.98;;
74593;SDS011;63097;51.872;4.460;2023-06-26T08:11:45;13.30;;;1.33;;
74593;SDS011;63097;51.872;4.460;2023-06-26T08:14:10;6.10;;;0.90;;
74593;SDS011;63097;51.872;4.460;2023-06-26T08:16:36;3.92;;;1.23;;
74593;SDS011;63097;51.872;4.460;2023-06-26T08:19:01;5.25;;;1.00;;
74593;SDS011;63097;51.872;4.460;2023-06-26T08:21:26;9.32;;;0.88;;
74593;SDS011;63097;51.872;4.460;2023-06-26T08:23:52;4.03;;;0.80;;
74593;SDS011;63097;51.872;4.460;2023-06-26T08:26:17;5.43;;;1.10;;
74593;SDS011;63097;51.872;4.460;2023-06-26T08:28:42;2.05;;;0.75;;
74593;SDS011;63097;51.872;4.460;2023-06-26T08:31:08;7.63;;;1.38;;
74593;SDS011;63097;51.872;4.460;2023-06-26T08:33:33;7.35;;;0.90;;
74593;SDS011;63097;51.872;4.460;2023-06-26T08:35:58;8.55;;;1.13;;
74593;SDS011;63097;51.872;4.460;2023-06-26T08:38:24;2.75;;;0.63;;
74593;SDS011;63097;51.872;4.460;2023-06-26T08:40:49;4.78;;;1.00;;
74593;SDS011;63097;51.872;4.460;2023-06-26T08:43:14;5.72;;;0.70;;
74593;SDS011;63097;51.872;4.460;2023-06-26T08:45:40;3.90;;;0.90;;
74593;SDS011;63097;51.872;4.460;2023-06-26T08:48:08;14.88;;;0.98;;
74593;SDS011;63097;51.872;4.460;2023-06-26T08:50:35;4.82;;;1.08;;
74593;SDS011;63097;51.872;4.460;2023-06-26T08:55:34;5.60;;;0.77;;
74593;SDS011;63097;51.872;4.460;2023-06-26T08:58:03;3.22;;;0.70;;
74593;SDS011;63097;51.872;4.460;2023-06-26T09:00:29;10.65;;;1.13;;
74593;SDS011;63097;51.872;4.460;2023-06-26T09:02:55;4.68;;;0.93;;
74593;SDS011;63097;51.872;4.460;2023-06-26T09:05:21;5.38;;;0.90;;
74593;SDS011;63097;51.872;4.460;2023-06-26T09:07:46;7.47;;;1.00;;
74593;SDS011;63097;51.872;4.460;2023-06-26T09:10:12;12.52;;;0.98;;
74593;SDS011;63097;51.872;4.460;2023-06-26T09:12:37;4.53;;;0.73;;
74593;SDS011;63097;51.872;4.460;2023-06-26T09:15:02;8.10;;;1.10;;
74593;SDS011;63097;51.872;4.460;2023-06-26T09:17:30;11.13;;;1.13;;
74593;SDS011;63097;51.872;4.460;2023-06-26T09:19:58;8.70;;;0.95;;
74593;SDS011;63097;51.872;4.460;2023-06-26T09:22:23;5.00;;;1.00;;
74593;SDS011;63097;51.872;4.460;2023-06-26T09:24:48;7.60;;;0.98;;
74593;SDS011;63097;51.872;4.460;2023-06-26T09:27:15;9.73;;;1.33;;
74593;SDS011;63097;51.872;4.460;2023-06-26T09:29:41;5.15;;;0.90;;
74593;SDS011;63097;51.872;4.460;2023-06-26T09:32:09;9.57;;;1.20;;
74593;SDS011;63097;51.872;4.460;2023-06-26T09:34:34;5.53;;;0.80;;
74593;SDS011;63097;51.872;4.460;2023-06-26T09:37:00;3.75;;;0.90;;
74593;SDS011;63097;51.872;4.460;2023-06-26T09:39:25;4.13;;;0.95;;
74593;SDS011;63097;51.872;4.460;2023-06-26T09:41:51;8.55;;;1.10;;
74593;SDS011;63097;51.872;4.460;2023-06-26T09:44:16;3.88;;;0.90;;
74593;SDS011;63097;51.872;4.460;2023-06-26T09:46:44;3.35;;;0.77;;
74593;SDS011;63097;51.872;4.460;2023-06-26T09:49:10;8.00;;;1.15;;
74593;SDS011;63097;51.872;4.460;2023-06-26T09:51:37;6.07;;;1.08;;
74593;SDS011;63097;51.872;4.460;2023-06-26T09:54:04;4.68;;;1.00;;
74593;SDS011;63097;51.872;4.460;2023-06-26T09:56:30;6.60;;;1.00;;
74593;SDS011;63097;51.872;4.460;2023-06-26T09:58:57;4.70;;;1.15;;
74593;SDS011;63097;51.872;4.460;2023-06-26T10:01:25;5.57;;;1.00;;
74593;SDS011;63097;51.872;4.460;2023-06-26T10:03:50;11.98;;;1.00;;
74593;SDS011;63097;51.872;4.460;2023-06-26T10:06:18;13.05;;;1.40;;
74593;SDS011;63097;51.872;4.460;2023-06-26T10:08:44;22.05;;;9.80;;
74593;SDS011;63097;51.872;4.460;2023-06-26T10:11:11;4.57;;;0.80;;
74593;SDS011;63097;51.872;4.460;2023-06-26T10:13:42;3.63;;;0.70;;
74593;SDS011;63097;51.872;4.460;2023-06-26T10:16:09;7.20;;;1.00;;
74593;SDS011;63097;51.872;4.460;2023-06-26T10:18:36;9.43;;;1.95;;
74593;SDS011;63097;51.872;4.460;2023-06-26T10:21:04;4.35;;;1.35;;
74593;SDS011;63097;51.872;4.460;2023-06-26T10:23:31;6.00;;;0.80;;
74593;SDS011;63097;51.872;4.460;2023-06-26T10:25:58;8.48;;;1.15;;
74593;SDS011;63097;51.872;4.460;2023-06-26T10:28:25;19.38;;;1.25;;
74593;SDS011;63097;51.872;4.460;2023-06-26T10:30:53;7.93;;;1.00;;
74593;SDS011;63097;51.872;4.460;2023-06-26T10:33:19;5.95;;;0.90;;
74593;SDS011;63097;51.872;4.460;2023-06-26T10:35:45;4.82;;;0.80;;
74593;SDS011;63097;51.872;4.460;2023-06-26T10:38:11;5.88;;;0.80;;
74593;SDS011;63097;51.872;4.460;2023-06-26T10:40:43;6.90;;;0.60;;
74593;SDS011;63097;51.872;4.460;2023-06-26T10:43:11;2.67;;;0.70;;
74593;SDS011;63097;51.872;4.460;2023-06-26T10:45:43;3.58;;;0.65;;
74593;SDS011;63097;51.872;4.460;2023-06-26T10:48:15;3.78;;;0.73;;
74593;SDS011;63097;51.872;4.460;2023-06-26T10:50:40;2.72;;;0.47;;
74593;SDS011;63097;51.872;4.460;2023-06-26T10:55:47;3.97;;;0.75;;
74593;SDS011;63097;51.872;4.460;2023-06-26T11:01:22;4.93;;;0.77;;
74593;SDS011;63097;51.872;4.460;2023-06-26T11:03:49;3.78;;;0.75;;
74593;SDS011;63097;51.872;4.460;2023-06-26T11:06:24;2.53;;;0.73;;
74593;SDS011;63097;51.872;4.460;2023-06-26T11:11:18;6.05;;;0.73;;
74593;SDS011;63097;51.872;4.460;2023-06-26T11:13:44;2.70;;;0.70;;
74593;SDS011;63097;51.872;4.460;2023-06-26T11:16:11;3.85;;;0.70;;
74593;SDS011;63097;51.872;4.460;2023-06-26T11:18:37;0.98;;;0.50;;
74593;SDS011;63097;51.872;4.460;2023-06-26T11:21:10;7.47;;;0.70;;
74593;SDS011;63097;51.872;4.460;2023-06-26T11:23:37;3.15;;;0.50;;
74593;SDS011;63097;51.872;4.460;2023-06-26T11:26:15;5.65;;;0.80;;
74593;SDS011;63097;51.872;4.460;2023-06-26T11:28:51;5.13;;;0.60;;
74593;SDS011;63097;51.872;4.460;2023-06-26T11:33:55;4.43;;;0.50;;
74593;SDS011;63097;51.872;4.460;2023-06-26T11:36:22;6.20;;;0.70;;
74593;SDS011;63097;51.872;4.460;2023-06-26T11:38:52;3.97;;;0.60;;
74593;SDS011;63097;51.872;4.460;2023-06-26T11:41:25;1.88;;;0.50;;
74593;SDS011;63097;51.872;4.460;2023-06-26T11:43:52;2.75;;;0.50;;
74593;SDS011;63097;51.872;4.460;2023-06-26T11:46:17;3.88;;;0.60;;
74593;SDS011;63097;51.872;4.460;2023-06-26T11:48:43;2.72;;;0.45;;
74593;SDS011;63097;51.872;4.460;2023-06-26T11:51:08;3.22;;;0.45;;
74593;SDS011;63097;51.872;4.460;2023-06-26T11:53:39;7.30;;;0.67;;
74593;SDS011;63097;51.872;4.460;2023-06-26T11:56:08;1.67;;;0.60;;
74593;SDS011;63097;51.872;4.460;2023-06-26T12:01:40;6.32;;;0.80;;
74593;SDS011;63097;51.872;4.460;2023-06-26T12:06:34;4.32;;;0.45;;
74593;SDS011;63097;51.872;4.460;2023-06-26T12:09:00;3.50;;;0.65;;
74593;SDS011;63097;51.872;4.460;2023-06-26T12:11:27;8.38;;;0.95;;
74593;SDS011;63097;51.872;4.460;2023-06-26T12:13:53;3.60;;;0.68;;
74593;SDS011;63097;51.872;4.460;2023-06-26T12:16:19;7.45;;;1.25;;
74593;SDS011;63097;51.872;4.460;2023-06-26T12:18:45;7.55;;;0.93;;
74593;SDS011;63097;51.872;4.460;2023-06-26T12:21:27;6.47;;;0.60;;
74593;SDS011;63097;51.872;4.460;2023-06-26T12:24:13;2.03;;;0.50;;
74593;SDS011;63097;51.872;4.460;2023-06-26T12:26:41;2.03;;;0.40;;
74593;SDS011;63097;51.872;4.460;2023-06-26T12:29:09;3.90;;;0.70;;
74593;SDS011;63097;51.872;4.460;2023-06-26T12:31:39;1.75;;;0.60;;
74593;SDS011;63097;51.872;4.460;2023-06-26T12:34:10;2.22;;;0.50;;
74593;SDS011;63097;51.872;4.460;2023-06-26T12:36:39;1.92;;;0.77;;
74593;SDS011;63097;51.872;4.460;2023-06-26T12:39:05;1.55;;;0.47;;
74593;SDS011;63097;51.872;4.460;2023-06-26T12:41:33;5.70;;;0.80;;
74593;SDS011;63097;51.872;4.460;2023-06-26T12:43:59;4.57;;;0.50;;
74593;SDS011;63097;51.872;4.460;2023-06-26T12:46:34;1.38;;;0.50;;
74593;SDS011;63097;51.872;4.460;2023-06-26T12:48:59;2.03;;;0.40;;
74593;SDS011;63097;51.872;4.460;2023-06-26T12:51:24;1.80;;;0.50;;
74593;SDS011;63097;51.872;4.460;2023-06-26T12:53:50;4.07;;;0.60;;
74593;SDS011;63097;51.872;4.460;2023-06-26T12:56:15;1.67;;;0.37;;
74593;SDS011;63097;51.872;4.460;2023-06-26T12:58:40;5.20;;;0.53;;
74593;SDS011;63097;51.872;4.460;2023-06-26T13:01:06;1.67;;;0.47;;
74593;SDS011;63097;51.872;4.460;2023-06-26T13:03:32;1.55;;;0.50;;
74593;SDS011;63097;51.872;4.460;2023-06-26T13:05:57;3.30;;;0.70;;
74593;SDS011;63097;51.872;4.460;2023-06-26T13:08:23;1.02;;;0.50;;
74593;SDS011;63097;51.872;4.460;2023-06-26T13:10:48;4.88;;;0.38;;
74593;SDS011;63097;51.872;4.460;2023-06-26T13:13:13;3.30;;;0.70;;
74593;SDS011;63097;51.872;4.460;2023-06-26T13:15:39;1.63;;;0.60;;
74593;SDS011;63097;51.872;4.460;2023-06-26T13:18:04;3.72;;;0.60;;
74593;SDS011;63097;51.872;4.460;2023-06-26T13:20:29;2.90;;;0.55;;
74593;SDS011;63097;51.872;4.460;2023-06-26T13:22:55;2.95;;;0.63;;
74593;SDS011;63097;51.872;4.460;2023-06-26T13:25:21;3.35;;;0.60;;
74593;SDS011;63097;51.872;4.460;2023-06-26T13:27:47;6.05;;;0.70;;
74593;SDS011;63097;51.872;4.460;2023-06-26T13:30:13;2.05;;;0.30;;
74593;SDS011;63097;51.872;4.460;2023-06-26T13:32:39;2.75;;;0.65;;
74593;SDS011;63097;51.872;4.460;2023-06-26T13:35:04;3.38;;;0.70;;
74593;SDS011;63097;51.872;4.460;2023-06-26T13:37:31;3.10;;;0.70;;
74593;SDS011;63097;51.872;4.460;2023-06-26T13:39:56;3.90;;;0.80;;
74593;SDS011;63097;51.872;4.460;2023-06-26T13:42:22;1.88;;;0.50;;
74593;SDS011;63097;51.872;4.460;2023-06-26T13:44:47;3.70;;;0.60;;
74593;SDS011;63097;51.872;4.460;2023-06-26T13:47:13;4.07;;;0.80;;
74593;SDS011;63097;51.872;4.460;2023-06-26T13:49:38;5.10;;;0.60;;
74593;SDS011;63097;51.872;4.460;2023-06-26T13:52:04;3.85;;;0.60;;
74593;SDS011;63097;51.872;4.460;2023-06-26T13:54:30;1.30;;;0.47;;
74593;SDS011;63097;51.872;4.460;2023-06-26T13:56:55;2.25;;;0.40;;
74593;SDS011;63097;51.872;4.460;2023-06-26T13:59:20;2.93;;;0.70;;
74593;SDS011;63097;51.872;4.460;2023-06-26T14:01:45;2.23;;;0.50;;
74593;SDS011;63097;51.872;4.460;2023-06-26T14:04:11;3.20;;;0.63;;
74593;SDS011;63097;51.872;4.460;2023-06-26T14:06:36;4.47;;;0.60;;
74593;SDS011;63097;51.872;4.460;2023-06-26T14:09:01;6.68;;;0.60;;
74593;SDS011;63097;51.872;4.460;2023-06-26T14:11:27;9.10;;;0.80;;
74593;SDS011;63097;51.872;4.460;2023-06-26T14:13:52;3.40;;;0.70;;
74593;SDS011;63097;51.872;4.460;2023-06-26T14:16:17;3.03;;;0.60;;
74593;SDS011;63097;51.872;4.460;2023-06-26T14:18:43;1.93;;;0.60;;
74593;SDS011;63097;51.872;4.460;2023-06-26T14:21:08;2.63;;;0.43;;
74593;SDS011;63097;51.872;4.460;2023-06-26T14:23:33;4.90;;;0.90;;
74593;SDS011;63097;51.872;4.460;2023-06-26T14:25:58;5.60;;;0.80;;
74593;SDS011;63097;51.872;4.460;2023-06-26T14:28:24;3.67;;;0.70;;
74593;SDS011;63097;51.872;4.460;2023-06-26T14:30:49;5.93;;;0.70;;
74593;SDS011;63097;51.872;4.460;2023-06-26T14:33:14;5.40;;;0.80;;
74593;SDS011;63097;51.872;4.460;2023-06-26T14:35:40;4.20;;;0.60;;
74593;SDS011;63097;51.872;4.460;2023-06-26T14:38:05;3.13;;;0.63;;
74593;SDS011;63097;51.872;4.460;2023-06-26T14:40:30;6.47;;;0.70;;
74593;SDS011;63097;51.872;4.460;2023-06-26T14:42:55;2.13;;;0.60;;
74593;SDS011;63097;51.872;4.460;2023-06-26T14:45:21;4.33;;;0.80;;
74593;SDS011;63097;51.872;4.460;2023-06-26T14:47:46;4.90;;;0.80;;
74593;SDS011;63097;51.872;4.460;2023-06-26T14:50:11;3.60;;;0.50;;
74593;SDS011;63097;51.872;4.460;2023-06-26T14:52:36;1.57;;;0.60;;
74593;SDS011;63097;51.872;4.460;2023-06-26T14:55:02;5.93;;;0.80;;
74593;SDS011;63097;51.872;4.460;2023-06-26T14:57:27;2.72;;;0.65;;
74593;SDS011;63097;51.872;4.460;2023-06-26T14:59:53;4.07;;;0.70;;
74593;SDS011;63097;51.872;4.460;2023-06-26T15:02:18;8.93;;;0.70;;
74593;SDS011;63097;51.872;4.460;2023-06-26T15:04:43;2.93;;;0.60;;
74593;SDS011;63097;51.872;4.460;2023-06-26T15:07:08;5.83;;;0.70;;